CMA CGM Aristote — MRPN4 — position and weather

sailwx.info

Track history (hours):
 
Tides and Currents Weather Stations Pressure Air Temp Water Temp Dewpoint Dewpoint Depression Visibility Wind Speed Wind Dir Waves Ship Positions

CMA CGM Aristote

Last reported at 2017-Apr-25 19:20 UTC. Time now 2017-Apr-28 08:13 UTC.
Position N 09°30' W 013°44'.

Length 170 m; draft 7.4 m.

Type: Ship (hazmat cat A). MMSI: 235054581.

Date/timePositionNaut miles runAvg speedWind from/ knotsBaromVisibWave heightAir tempDewpointWater temp
2017-Apr-25 19:20N 09°30' W 013°44'0 0.9
2017-Apr-25 18:59N 09°31' W 013°43'0 0.0
2017-Apr-25 18:26N 09°31' W 013°43'0 0.0
2017-Apr-25 17:59N 09°31' W 013°43'0 0.0
2017-Apr-25 16:17N 09°31' W 013°43'0 0.0
2017-Apr-25 15:59N 09°31' W 013°43'0 0.0
2017-Apr-25 15:29N 09°31' W 013°43'0 0.0
2017-Apr-25 14:59N 09°31' W 013°43'0 0.0
2017-Apr-25 13:59N 09°31' W 013°43'0 0.0
2017-Apr-25 13:29N 09°31' W 013°43'0 0.0
2017-Apr-25 12:59N 09°31' W 013°43'0 0.0
2017-Apr-25 12:29N 09°31' W 013°43'0 0.0
2017-Apr-25 11:59N 09°31' W 013°43'0 0.0
2017-Apr-25 11:29N 09°31' W 013°43'0 0.0
2017-Apr-25 10:59N 09°31' W 013°43'0 0.0
2017-Apr-25 10:29N 09°31' W 013°43'0 0.0
2017-Apr-25 09:59N 09°31' W 013°43'0 0.0
2017-Apr-25 09:29N 09°31' W 013°43'0 0.0
2017-Apr-25 08:59N 09°31' W 013°43'0 0.0
2017-Apr-25 08:29N 09°31' W 013°43'0 0.0
2017-Apr-25 07:59N 09°31' W 013°43'0 0.0
2017-Apr-25 07:29N 09°31' W 013°43'0 0.0
2017-Apr-25 06:59N 09°31' W 013°43'0 0.0
2017-Apr-25 06:29N 09°31' W 013°43'0 0.0
2017-Apr-25 05:59N 09°31' W 013°43'0 0.0
2017-Apr-25 05:29N 09°31' W 013°43'0 0.0
2017-Apr-25 04:59N 09°31' W 013°43'0 0.0
2017-Apr-25 04:26N 09°31' W 013°43'0 0.0
2017-Apr-25 03:59N 09°31' W 013°43'0 0.0
2017-Apr-25 03:29N 09°31' W 013°43'0 0.0
2017-Apr-25 02:59N 09°31' W 013°43'0 0.0
2017-Apr-25 02:29N 09°31' W 013°43'0 0.0
2017-Apr-25 01:59N 09°31' W 013°43'0 0.0
2017-Apr-25 01:29N 09°31' W 013°43'0 0.0
2017-Apr-25 00:59N 09°31' W 013°43'0 0.0
2017-Apr-25 00:29N 09°31' W 013°43'0 0.0
2017-Apr-24 23:59N 09°31' W 013°43'0 0.0
2017-Apr-24 23:29N 09°31' W 013°43'0 0.0
2017-Apr-24 22:59N 09°31' W 013°43'0 0.0
2017-Apr-24 22:29N 09°31' W 013°43'0 0.0
2017-Apr-24 21:59N 09°31' W 013°43'0 0.0
2017-Apr-24 21:26N 09°31' W 013°43'0 0.0
2017-Apr-24 20:59N 09°31' W 013°43'0 0.0
2017-Apr-24 20:29N 09°31' W 013°43'0 0.0
2017-Apr-24 20:00N 09°31' W 013°43'0 0.8
2017-Apr-24 19:30N 09°30' W 013°44'3 6.1
2017-Apr-24 19:00N 09°27' W 013°43'2 3.9
2017-Apr-24 18:30N 09°25' W 013°43'1 2.8
2017-Apr-24 18:00N 09°24' W 013°43'611.2
2017-Apr-24 17:31N 09°20' W 013°47'1 1.5
2017-Apr-24 17:00N 09°20' W 013°48'1 1.2
2017-Apr-24 16:30N 09°20' W 013°49'1 1.1
2017-Apr-24 16:00N 09°19' W 013°49'0 0.9
2017-Apr-24 15:30N 09°19' W 013°49'0 0.9
2017-Apr-24 15:00N 09°19' W 013°50'0 0.7
2017-Apr-24 14:30N 09°19' W 013°50'1 0.5
2017-Apr-24 13:30N 09°18' W 013°50'0 0.3
2017-Apr-24 13:00N 09°18' W 013°51'0 0.3
2017-Apr-24 12:30N 09°18' W 013°51'0 0.5
2017-Apr-24 12:00N 09°19' W 013°51'0 0.5
2017-Apr-24 11:30N 09°19' W 013°50'6112.4
2017-Apr-24 06:34N 09°34' W 014°51'114.9
2017-Apr-24 06:31N 09°34' W 014°51'815.0
2017-Apr-24 06:01N 09°36' W 014°59'815.1
2017-Apr-24 05:31N 09°38' W 015°06'815.1
2017-Apr-24 05:01N 09°40' W 015°14'714.9
2017-Apr-24 04:31N 09°42' W 015°21'714.8
2017-Apr-24 04:01N 09°45' W 015°28'815.0
2017-Apr-24 03:31N 09°47' W 015°35'815.0
2017-Apr-24 03:01N 09°49' W 015°42'815.1
2017-Apr-24 02:31N 09°51' W 015°50'815.1
2017-Apr-24 02:01N 09°53' W 015°57'815.1
2017-Apr-24 01:31N 09°55' W 016°04'815.2
2017-Apr-24 01:01N 09°57' W 016°12'915.1
2017-Apr-24 00:27N 09°59' W 016°20'815.3
2017-Apr-23 23:54N 10°02' W 016°28'814.7
2017-Apr-23 23:23N 10°06' W 016°35'915.1
2017-Apr-23 22:45N 10°13' W 016°41'415.4
2017-Apr-23 22:31N 10°16' W 016°44'1015.2
2017-Apr-23 21:51N 10°24' W 016°50'514.7
2017-Apr-23 21:29N 10°29' W 016°53'3714.6
2017-Apr-23 18:59N 11°01' W 017°10'2514.9
2017-Apr-23 17:18N 11°25' W 017°17'12114.6
2017-Apr-23 08:59N 13°20' W 017°56'917.9
2017-Apr-23 08:30N 13°28' W 017°58'1016.8
2017-Apr-23 07:56N 13°38' W 017°59'3813.9
2017-Apr-23 05:12N 14°16' W 018°00'2514.3
2017-Apr-23 03:29N 14°40' W 017°60'1914.3
2017-Apr-23 02:09N 14°59' W 018°01'214.1
2017-Apr-23 02:00N 15°02' W 018°01'1914.3
2017-Apr-23 00:41N 15°20' W 018°00'2914.0
2017-Apr-22 22:39N 15°49' W 018°00'214.2
2017-Apr-22 22:29N 15°51' W 018°00'714.3
2017-Apr-22 21:59N 15°58' W 018°00'714.2
2017-Apr-22 21:30N 16°05' W 018°00'714.3
2017-Apr-22 21:00N 16°12' W 017°60'  
2017-Apr-19 15:15N 32°37' W 009°46'2114.5
2017-Apr-19 13:47N 32°51' W 009°27'104 2.6
2017-Apr-17 22:09N 33°39' W 007°37'0 0.4
2017-Apr-17 22:00N 33°39' W 007°37'2 4.1
2017-Apr-17 21:30N 33°40' W 007°39'4216.4
2017-Apr-17 18:58N 34°16' W 007°13'1019.9
2017-Apr-17 18:29N 34°25' W 007°08'1020.1
2017-Apr-17 18:00N 34°33' W 007°03'1020.1
2017-Apr-17 17:30N 34°42' W 006°58'1920.2
2017-Apr-17 16:32N 34°59' W 006°46'120.2
2017-Apr-17 16:30N 35°00' W 006°46'1020.0
2017-Apr-17 16:00N 35°09' W 006°40'1019.7
2017-Apr-17 15:30N 35°18' W 006°35'4519.8
2017-Apr-17 13:13N 35°53' W 006°01'919.5
2017-Apr-17 12:46N 35°56' W 005°51'619.8
2017-Apr-17 12:29N 35°57' W 005°44'918.4
2017-Apr-17 12:01N 35°58' W 005°33'815.9
2017-Apr-17 11:31N 36°03' W 005°25'5 9.6
2017-Apr-17 11:00N 36°07' W 005°25'0 0.5
2017-Apr-17 10:19N 36°08' W 005°25'0 0.0
2017-Apr-17 09:55N 36°08' W 005°25'0 0.0
2017-Apr-17 09:25N 36°08' W 005°25'0 0.0
2017-Apr-17 08:58N 36°08' W 005°25'0 0.0
2017-Apr-17 08:28N 36°08' W 005°25'0 0.0
2017-Apr-17 07:58N 36°08' W 005°25'0 0.0
2017-Apr-17 07:28N 36°08' W 005°25'0 0.0
2017-Apr-17 06:58N 36°08' W 005°25'0 0.0
2017-Apr-17 06:28N 36°08' W 005°25'0 0.0
2017-Apr-17 05:58N 36°08' W 005°25'0 0.0
2017-Apr-17 05:22N 36°08' W 005°25'0 0.0
2017-Apr-17 04:55N 36°08' W 005°25'0 0.0
2017-Apr-17 04:28N 36°08' W 005°25'0 0.0
2017-Apr-17 03:58N 36°08' W 005°25'0 0.0
2017-Apr-17 03:25N 36°08' W 005°25'0 0.0
2017-Apr-17 02:58N 36°08' W 005°25'0 0.0
2017-Apr-17 02:28N 36°08' W 005°25'0 0.0
2017-Apr-17 01:58N 36°08' W 005°25'0 0.0
2017-Apr-17 01:28N 36°08' W 005°25'0 0.0
2017-Apr-17 00:58N 36°08' W 005°25'0 0.0
2017-Apr-17 00:28N 36°08' W 005°25'0 0.0
2017-Apr-16 23:58N 36°08' W 005°25'0 0.0
2017-Apr-16 23:28N 36°08' W 005°25'0 0.0
2017-Apr-16 22:58N 36°08' W 005°25'0 0.0
2017-Apr-16 22:28N 36°08' W 005°25'0 0.0
2017-Apr-16 21:58N 36°08' W 005°25'0 0.1
2017-Apr-16 21:30N 36°08' W 005°25'1 2.9
2017-Apr-16 21:01N 36°08' W 005°24'4 8.7
2017-Apr-16 20:30N 36°04' W 005°20'3 6.9
2017-Apr-16 20:00N 36°05' W 005°16'3 2.4
2017-Apr-16 18:45N 36°07' W 005°12'0 1.5
2017-Apr-16 18:30N 36°06' W 005°13'3 5.2
2017-Apr-16 18:00N 36°04' W 005°14'510.3
2017-Apr-16 17:30N 36°00' W 005°18'611.6
2017-Apr-16 17:00N 35°58' W 005°25'510.3
2017-Apr-16 16:30N 35°55' W 005°30'1 1.7
2017-Apr-16 15:58N 35°54' W 005°29'0 0.0
2017-Apr-16 15:28N 35°54' W 005°29'0 0.0
2017-Apr-16 14:55N 35°54' W 005°29'0 0.0
2017-Apr-16 13:58N 35°54' W 005°29'0 0.0
2017-Apr-16 13:28N 35°54' W 005°29'0 0.0
2017-Apr-16 12:52N 35°54' W 005°29'0 0.0
2017-Apr-16 12:28N 35°54' W 005°29'0 0.0
2017-Apr-16 11:55N 35°54' W 005°29'0 0.0
2017-Apr-16 11:19N 35°54' W 005°29'0 0.0
2017-Apr-16 10:55N 35°54' W 005°29'0 0.0
2017-Apr-16 10:25N 35°54' W 005°29'0 0.0
2017-Apr-16 09:49N 35°54' W 005°29'0 0.0
2017-Apr-16 09:28N 35°54' W 005°29'0 0.0
2017-Apr-16 08:49N 35°54' W 005°29'0 0.0
2017-Apr-16 08:28N 35°54' W 005°29'0 0.0
2017-Apr-16 07:58N 35°54' W 005°29'0 0.0
2017-Apr-16 07:28N 35°54' W 005°29'0 0.0
2017-Apr-16 06:58N 35°54' W 005°29'0 0.0
2017-Apr-16 06:28N 35°54' W 005°29'0 0.0
2017-Apr-16 05:58N 35°54' W 005°29'0 0.0
2017-Apr-16 05:25N 35°54' W 005°29'0 0.0
2017-Apr-16 04:58N 35°54' W 005°29'0 0.0
2017-Apr-16 04:28N 35°54' W 005°29'0 0.0
2017-Apr-16 03:58N 35°54' W 005°29'0 0.0
2017-Apr-16 03:28N 35°54' W 005°29'0 0.0
2017-Apr-16 02:58N 35°54' W 005°29'0 0.0
2017-Apr-16 02:28N 35°54' W 005°29'0 0.0
2017-Apr-16 01:58N 35°54' W 005°29'0 0.0
2017-Apr-16 01:25N 35°54' W 005°29'0 0.0
2017-Apr-16 00:58N 35°54' W 005°29'0 0.0
2017-Apr-16 00:28N 35°54' W 005°29'1 1.1
2017-Apr-16 00:00N 35°54' W 005°29'3 5.6
2017-Apr-15 23:30N 35°54' W 005°33'1 1.7
2017-Apr-15 23:00N 35°54' W 005°34'1 1.0
2017-Apr-15 22:29N 35°54' W 005°35'1 1.7
2017-Apr-15 22:00N 35°54' W 005°34'1 1.5
2017-Apr-15 21:28N 35°54' W 005°35'1 1.2
2017-Apr-15 20:59N 35°54' W 005°34'0 0.9
2017-Apr-15 20:30N 35°54' W 005°34'0 0.5
2017-Apr-15 20:00N 35°54' W 005°35'1 1.2
2017-Apr-15 19:30N 35°54' W 005°34'  
Track history (hours):
 
Tides and Currents Weather Stations Pressure Air Temp Water Temp Dewpoint Dewpoint Depression Visibility Wind Speed Wind Dir Waves Ship Positions

CMA CGM Aristote

Last reported at 2017-Apr-25 19:20 UTC. Time now 2017-Apr-28 08:13 UTC.
Position N 09°30' W 013°44'.

Length 170 m; draft 7.4 m.

Type: Ship (hazmat cat A). MMSI: 235054581.

Date/timePositionNaut miles runAvg speedWind from/ knotsBaromVisibWave heightAir tempDewpointWater temp
2017-Apr-25 19:20N 09°30' W 013°44'0 0.9
2017-Apr-25 18:59N 09°31' W 013°43'0 0.0
2017-Apr-25 18:26N 09°31' W 013°43'0 0.0
2017-Apr-25 17:59N 09°31' W 013°43'0 0.0
2017-Apr-25 16:17N 09°31' W 013°43'0 0.0
2017-Apr-25 15:59N 09°31' W 013°43'0 0.0
2017-Apr-25 15:29N 09°31' W 013°43'0 0.0
2017-Apr-25 14:59N 09°31' W 013°43'0 0.0
2017-Apr-25 13:59N 09°31' W 013°43'0 0.0
2017-Apr-25 13:29N 09°31' W 013°43'0 0.0
2017-Apr-25 12:59N 09°31' W 013°43'0 0.0
2017-Apr-25 12:29N 09°31' W 013°43'0 0.0
2017-Apr-25 11:59N 09°31' W 013°43'0 0.0
2017-Apr-25 11:29N 09°31' W 013°43'0 0.0
2017-Apr-25 10:59N 09°31' W 013°43'0 0.0
2017-Apr-25 10:29N 09°31' W 013°43'0 0.0
2017-Apr-25 09:59N 09°31' W 013°43'0 0.0
2017-Apr-25 09:29N 09°31' W 013°43'0 0.0
2017-Apr-25 08:59N 09°31' W 013°43'0 0.0
2017-Apr-25 08:29N 09°31' W 013°43'0 0.0
2017-Apr-25 07:59N 09°31' W 013°43'0 0.0
2017-Apr-25 07:29N 09°31' W 013°43'0 0.0
2017-Apr-25 06:59N 09°31' W 013°43'0 0.0
2017-Apr-25 06:29N 09°31' W 013°43'0 0.0
2017-Apr-25 05:59N 09°31' W 013°43'0 0.0
2017-Apr-25 05:29N 09°31' W 013°43'0 0.0
2017-Apr-25 04:59N 09°31' W 013°43'0 0.0
2017-Apr-25 04:26N 09°31' W 013°43'0 0.0
2017-Apr-25 03:59N 09°31' W 013°43'0 0.0
2017-Apr-25 03:29N 09°31' W 013°43'0 0.0
2017-Apr-25 02:59N 09°31' W 013°43'0 0.0
2017-Apr-25 02:29N 09°31' W 013°43'0 0.0
2017-Apr-25 01:59N 09°31' W 013°43'0 0.0
2017-Apr-25 01:29N 09°31' W 013°43'0 0.0
2017-Apr-25 00:59N 09°31' W 013°43'0 0.0
2017-Apr-25 00:29N 09°31' W 013°43'0 0.0
2017-Apr-24 23:59N 09°31' W 013°43'0 0.0
2017-Apr-24 23:29N 09°31' W 013°43'0 0.0
2017-Apr-24 22:59N 09°31' W 013°43'0 0.0
2017-Apr-24 22:29N 09°31' W 013°43'0 0.0
2017-Apr-24 21:59N 09°31' W 013°43'0 0.0
2017-Apr-24 21:26N 09°31' W 013°43'0 0.0
2017-Apr-24 20:59N 09°31' W 013°43'0 0.0
2017-Apr-24 20:29N 09°31' W 013°43'0 0.0
2017-Apr-24 20:00N 09°31' W 013°43'0 0.8
2017-Apr-24 19:30N 09°30' W 013°44'3 6.1
2017-Apr-24 19:00N 09°27' W 013°43'2 3.9
2017-Apr-24 18:30N 09°25' W 013°43'1 2.8
2017-Apr-24 18:00N 09°24' W 013°43'611.2
2017-Apr-24 17:31N 09°20' W 013°47'1 1.5
2017-Apr-24 17:00N 09°20' W 013°48'1 1.2
2017-Apr-24 16:30N 09°20' W 013°49'1 1.1
2017-Apr-24 16:00N 09°19' W 013°49'0 0.9
2017-Apr-24 15:30N 09°19' W 013°49'0 0.9
2017-Apr-24 15:00N 09°19' W 013°50'0 0.7
2017-Apr-24 14:30N 09°19' W 013°50'1 0.5
2017-Apr-24 13:30N 09°18' W 013°50'0 0.3
2017-Apr-24 13:00N 09°18' W 013°51'0 0.3
2017-Apr-24 12:30N 09°18' W 013°51'0 0.5
2017-Apr-24 12:00N 09°19' W 013°51'0 0.5
2017-Apr-24 11:30N 09°19' W 013°50'6112.4
2017-Apr-24 06:34N 09°34' W 014°51'114.9
2017-Apr-24 06:31N 09°34' W 014°51'815.0
2017-Apr-24 06:01N 09°36' W 014°59'815.1
2017-Apr-24 05:31N 09°38' W 015°06'815.1
2017-Apr-24 05:01N 09°40' W 015°14'714.9
2017-Apr-24 04:31N 09°42' W 015°21'714.8
2017-Apr-24 04:01N 09°45' W 015°28'815.0
2017-Apr-24 03:31N 09°47' W 015°35'815.0
2017-Apr-24 03:01N 09°49' W 015°42'815.1
2017-Apr-24 02:31N 09°51' W 015°50'815.1
2017-Apr-24 02:01N 09°53' W 015°57'815.1
2017-Apr-24 01:31N 09°55' W 016°04'815.2
2017-Apr-24 01:01N 09°57' W 016°12'915.1
2017-Apr-24 00:27N 09°59' W 016°20'815.3
2017-Apr-23 23:54N 10°02' W 016°28'814.7
2017-Apr-23 23:23N 10°06' W 016°35'915.1
2017-Apr-23 22:45N 10°13' W 016°41'415.4
2017-Apr-23 22:31N 10°16' W 016°44'1015.2
2017-Apr-23 21:51N 10°24' W 016°50'514.7
2017-Apr-23 21:29N 10°29' W 016°53'3714.6
2017-Apr-23 18:59N 11°01' W 017°10'2514.9
2017-Apr-23 17:18N 11°25' W 017°17'12114.6
2017-Apr-23 08:59N 13°20' W 017°56'917.9
2017-Apr-23 08:30N 13°28' W 017°58'1016.8
2017-Apr-23 07:56N 13°38' W 017°59'3813.9
2017-Apr-23 05:12N 14°16' W 018°00'2514.3
2017-Apr-23 03:29N 14°40' W 017°60'1914.3
2017-Apr-23 02:09N 14°59' W 018°01'214.1
2017-Apr-23 02:00N 15°02' W 018°01'1914.3
2017-Apr-23 00:41N 15°20' W 018°00'2914.0
2017-Apr-22 22:39N 15°49' W 018°00'214.2
2017-Apr-22 22:29N 15°51' W 018°00'714.3
2017-Apr-22 21:59N 15°58' W 018°00'714.2
2017-Apr-22 21:30N 16°05' W 018°00'714.3
2017-Apr-22 21:00N 16°12' W 017°60'  
2017-Apr-19 15:15N 32°37' W 009°46'2114.5
2017-Apr-19 13:47N 32°51' W 009°27'104 2.6
2017-Apr-17 22:09N 33°39' W 007°37'0 0.4
2017-Apr-17 22:00N 33°39' W 007°37'2 4.1
2017-Apr-17 21:30N 33°40' W 007°39'4216.4
2017-Apr-17 18:58N 34°16' W 007°13'1019.9
2017-Apr-17 18:29N 34°25' W 007°08'1020.1
2017-Apr-17 18:00N 34°33' W 007°03'1020.1
2017-Apr-17 17:30N 34°42' W 006°58'1920.2
2017-Apr-17 16:32N 34°59' W 006°46'120.2
2017-Apr-17 16:30N 35°00' W 006°46'1020.0
2017-Apr-17 16:00N 35°09' W 006°40'1019.7
2017-Apr-17 15:30N 35°18' W 006°35'4519.8
2017-Apr-17 13:13N 35°53' W 006°01'919.5
2017-Apr-17 12:46N 35°56' W 005°51'619.8
2017-Apr-17 12:29N 35°57' W 005°44'918.4
2017-Apr-17 12:01N 35°58' W 005°33'815.9
2017-Apr-17 11:31N 36°03' W 005°25'5 9.6
2017-Apr-17 11:00N 36°07' W 005°25'0 0.5
2017-Apr-17 10:19N 36°08' W 005°25'0 0.0
2017-Apr-17 09:55N 36°08' W 005°25'0 0.0
2017-Apr-17 09:25N 36°08' W 005°25'0 0.0
2017-Apr-17 08:58N 36°08' W 005°25'0 0.0
2017-Apr-17 08:28N 36°08' W 005°25'0 0.0
2017-Apr-17 07:58N 36°08' W 005°25'0 0.0
2017-Apr-17 07:28N 36°08' W 005°25'0 0.0
2017-Apr-17 06:58N 36°08' W 005°25'0 0.0
2017-Apr-17 06:28N 36°08' W 005°25'0 0.0
2017-Apr-17 05:58N 36°08' W 005°25'0 0.0
2017-Apr-17 05:22N 36°08' W 005°25'0 0.0
2017-Apr-17 04:55N 36°08' W 005°25'0 0.0
2017-Apr-17 04:28N 36°08' W 005°25'0 0.0
2017-Apr-17 03:58N 36°08' W 005°25'0 0.0
2017-Apr-17 03:25N 36°08' W 005°25'0 0.0
2017-Apr-17 02:58N 36°08' W 005°25'0 0.0
2017-Apr-17 02:28N 36°08' W 005°25'0 0.0
2017-Apr-17 01:58N 36°08' W 005°25'0 0.0
2017-Apr-17 01:28N 36°08' W 005°25'0 0.0
2017-Apr-17 00:58N 36°08' W 005°25'0 0.0
2017-Apr-17 00:28N 36°08' W 005°25'0 0.0
2017-Apr-16 23:58N 36°08' W 005°25'0 0.0
2017-Apr-16 23:28N 36°08' W 005°25'0 0.0
2017-Apr-16 22:58N 36°08' W 005°25'0 0.0
2017-Apr-16 22:28N 36°08' W 005°25'0 0.0
2017-Apr-16 21:58N 36°08' W 005°25'0 0.1
2017-Apr-16 21:30N 36°08' W 005°25'1 2.9
2017-Apr-16 21:01N 36°08' W 005°24'4 8.7
2017-Apr-16 20:30N 36°04' W 005°20'3 6.9
2017-Apr-16 20:00N 36°05' W 005°16'3 2.4
2017-Apr-16 18:45N 36°07' W 005°12'0 1.5
2017-Apr-16 18:30N 36°06' W 005°13'3 5.2
2017-Apr-16 18:00N 36°04' W 005°14'510.3
2017-Apr-16 17:30N 36°00' W 005°18'611.6
2017-Apr-16 17:00N 35°58' W 005°25'510.3
2017-Apr-16 16:30N 35°55' W 005°30'1 1.7
2017-Apr-16 15:58N 35°54' W 005°29'0 0.0
2017-Apr-16 15:28N 35°54' W 005°29'0 0.0
2017-Apr-16 14:55N 35°54' W 005°29'0 0.0
2017-Apr-16 13:58N 35°54' W 005°29'0 0.0
2017-Apr-16 13:28N 35°54' W 005°29'0 0.0
2017-Apr-16 12:52N 35°54' W 005°29'0 0.0
2017-Apr-16 12:28N 35°54' W 005°29'0 0.0
2017-Apr-16 11:55N 35°54' W 005°29'0 0.0
2017-Apr-16 11:19N 35°54' W 005°29'0 0.0
2017-Apr-16 10:55N 35°54' W 005°29'0 0.0
2017-Apr-16 10:25N 35°54' W 005°29'0 0.0
2017-Apr-16 09:49N 35°54' W 005°29'0 0.0
2017-Apr-16 09:28N 35°54' W 005°29'0 0.0
2017-Apr-16 08:49N 35°54' W 005°29'0 0.0
2017-Apr-16 08:28N 35°54' W 005°29'0 0.0
2017-Apr-16 07:58N 35°54' W 005°29'0 0.0
2017-Apr-16 07:28N 35°54' W 005°29'0 0.0
2017-Apr-16 06:58N 35°54' W 005°29'0 0.0
2017-Apr-16 06:28N 35°54' W 005°29'0 0.0
2017-Apr-16 05:58N 35°54' W 005°29'0 0.0
2017-Apr-16 05:25N 35°54' W 005°29'0 0.0
2017-Apr-16 04:58N 35°54' W 005°29'0 0.0
2017-Apr-16 04:28N 35°54' W 005°29'0 0.0
2017-Apr-16 03:58N 35°54' W 005°29'0 0.0
2017-Apr-16 03:28N 35°54' W 005°29'0 0.0
2017-Apr-16 02:58N 35°54' W 005°29'0 0.0
2017-Apr-16 02:28N 35°54' W 005°29'0 0.0
2017-Apr-16 01:58N 35°54' W 005°29'0 0.0
2017-Apr-16 01:25N 35°54' W 005°29'0 0.0
2017-Apr-16 00:58N 35°54' W 005°29'0 0.0
2017-Apr-16 00:28N 35°54' W 005°29'1 1.1
2017-Apr-16 00:00N 35°54' W 005°29'3 5.6
2017-Apr-15 23:30N 35°54' W 005°33'1 1.7
2017-Apr-15 23:00N 35°54' W 005°34'1 1.0
2017-Apr-15 22:29N 35°54' W 005°35'1 1.7
2017-Apr-15 22:00N 35°54' W 005°34'1 1.5
2017-Apr-15 21:28N 35°54' W 005°35'1 1.2
2017-Apr-15 20:59N 35°54' W 005°34'0 0.9
2017-Apr-15 20:30N 35°54' W 005°34'0 0.5
2017-Apr-15 20:00N 35°54' W 005°35'1 1.2
2017-Apr-15 19:30N 35°54' W 005°34'  

Dump ship's entire track history